createdAt,value
2023-05-06T00:01:27.296Z,99.90
2023-05-06T00:03:57.677Z,99.90
2023-05-06T00:06:25.478Z,99.90
2023-05-06T00:08:53.689Z,99.90
2023-05-06T00:11:21.614Z,99.90
2023-05-06T00:13:48.786Z,99.90
2023-05-06T00:16:16.100Z,99.90
2023-05-06T00:18:43.815Z,99.90
2023-05-06T00:21:11.258Z,99.90
2023-05-06T00:23:38.953Z,99.90
2023-05-06T00:26:05.986Z,99.90
2023-05-06T00:28:34.300Z,99.90
2023-05-06T00:31:01.801Z,99.90
2023-05-06T00:33:29.854Z,99.90
2023-05-06T00:35:57.914Z,99.90
2023-05-06T00:38:26.100Z,99.90
2023-05-06T00:40:54.294Z,99.90
2023-05-06T00:43:22.363Z,99.90
2023-05-06T00:45:49.940Z,99.90
2023-05-06T00:48:18.076Z,99.90
2023-05-06T00:50:46.032Z,99.90
2023-05-06T00:53:14.241Z,99.90
2023-05-06T00:55:42.153Z,99.90
2023-05-06T00:58:12.226Z,99.90
2023-05-06T01:00:40.668Z,99.90
2023-05-06T01:03:09.119Z,99.90
2023-05-06T01:05:54.027Z,99.90
2023-05-06T01:08:35.849Z,99.90
2023-05-06T01:11:10.070Z,99.90
2023-05-06T01:13:48.862Z,99.90
2023-05-06T01:16:20.755Z,99.90
2023-05-06T01:18:51.328Z,99.90
2023-05-06T01:21:20.199Z,99.90
2023-05-06T01:23:58.502Z,99.90
2023-05-06T01:26:26.888Z,99.90
2023-05-06T01:28:55.326Z,99.90
2023-05-06T01:31:44.383Z,99.90
2023-05-06T01:34:45.245Z,99.90
2023-05-06T01:37:27.650Z,99.90
2023-05-06T01:39:57.572Z,99.90
2023-05-06T01:42:29.525Z,99.90
2023-05-06T01:44:57.362Z,99.90
2023-05-06T01:47:25.644Z,99.90
2023-05-06T01:49:53.153Z,99.90
2023-05-06T01:52:21.933Z,99.90
2023-05-06T01:54:50.466Z,99.90
2023-05-06T01:57:17.790Z,99.90
2023-05-06T01:59:47.056Z,99.90
2023-05-06T02:02:17.641Z,99.90
2023-05-06T02:04:45.568Z,99.90
2023-05-06T02:07:12.851Z,99.90
2023-05-06T02:09:40.259Z,99.90
2023-05-06T02:12:07.764Z,99.90
2023-05-06T02:14:35.680Z,99.90
2023-05-06T02:17:07.322Z,99.90
2023-05-06T02:19:35.380Z,99.90
2023-05-06T02:22:03.107Z,99.90
2023-05-06T02:24:30.711Z,99.90
2023-05-06T02:26:57.671Z,99.90
2023-05-06T02:29:25.178Z,99.90
2023-05-06T02:31:52.594Z,99.90
2023-05-06T02:34:20.387Z,99.90
2023-05-06T02:36:47.921Z,99.90
2023-05-06T02:39:16.142Z,99.90
2023-05-06T02:41:43.283Z,99.90
2023-05-06T02:44:10.882Z,99.90
2023-05-06T02:46:38.358Z,99.90
2023-05-06T02:49:06.121Z,99.90
2023-05-06T02:51:33.701Z,99.90
2023-05-06T02:54:01.306Z,99.90
2023-05-06T02:56:29.214Z,99.90
2023-05-06T02:58:56.139Z,99.90
2023-05-06T03:01:23.835Z,99.90
2023-05-06T03:03:52.556Z,99.90
2023-05-06T03:06:19.708Z,99.90
2023-05-06T03:08:47.383Z,99.90
2023-05-06T03:11:14.852Z,99.90
2023-05-06T03:13:43.093Z,99.90
2023-05-06T03:16:14.608Z,99.90
2023-05-06T03:18:41.857Z,99.90
2023-05-06T03:21:09.646Z,99.90
2023-05-06T03:23:37.519Z,99.90
2023-05-06T03:26:05.268Z,99.90
2023-05-06T03:28:32.709Z,99.90
2023-05-06T03:31:00.191Z,99.90
2023-05-06T03:33:28.038Z,99.90
2023-05-06T03:35:55.522Z,99.90
2023-05-06T03:38:22.920Z,99.90
2023-05-06T03:40:50.535Z,99.90
2023-05-06T03:43:18.504Z,99.90
2023-05-06T03:45:46.687Z,99.90
2023-05-06T03:48:14.452Z,99.90
2023-05-06T03:50:42.439Z,99.90
2023-05-06T03:53:10.515Z,99.90
2023-05-06T03:55:38.396Z,99.90
2023-05-06T03:58:06.233Z,99.90
2023-05-06T04:00:34.058Z,99.90
2023-05-06T04:03:01.599Z,99.90
2023-05-06T04:05:29.242Z,99.90
2023-05-06T04:07:56.258Z,99.90
2023-05-06T04:10:23.847Z,99.90
2023-05-06T04:12:52.258Z,99.90
2023-05-06T04:15:20.584Z,99.90
2023-05-06T04:17:49.525Z,99.90
2023-05-06T04:20:17.048Z,99.90
2023-05-06T04:22:43.763Z,99.90
2023-05-06T04:25:12.672Z,99.90
2023-05-06T04:27:41.060Z,99.90
2023-05-06T04:30:09.999Z,99.90
2023-05-06T04:32:39.124Z,99.90
2023-05-06T04:35:07.793Z,99.90
2023-05-06T04:37:35.774Z,99.90
2023-05-06T04:40:04.632Z,99.90
2023-05-06T04:42:32.345Z,99.90
2023-05-06T04:45:00.019Z,99.90
2023-05-06T04:47:27.106Z,99.90
2023-05-06T04:49:55.011Z,99.90
2023-05-06T04:52:22.098Z,99.90
2023-05-06T04:54:49.740Z,99.90
2023-05-06T04:57:16.558Z,99.90
2023-05-06T04:59:44.247Z,99.90
2023-05-06T05:02:12.301Z,99.90
2023-05-06T05:04:40.942Z,99.90
2023-05-06T05:07:08.766Z,99.90
2023-05-06T05:09:36.882Z,99.90
2023-05-06T05:12:04.766Z,99.90
2023-05-06T05:14:32.664Z,99.90
2023-05-06T05:16:59.422Z,99.90
2023-05-06T05:19:27.131Z,99.90
2023-05-06T05:21:55.171Z,99.90
2023-05-06T05:24:23.356Z,99.90
2023-05-06T05:26:50.848Z,99.90
2023-05-06T05:29:18.206Z,99.90
2023-05-06T05:31:46.314Z,99.90
2023-05-06T05:34:14.044Z,99.90
2023-05-06T05:36:41.076Z,99.90
2023-05-06T05:39:08.186Z,99.90
2023-05-06T05:41:36.236Z,99.90
2023-05-06T05:44:03.679Z,99.90
2023-05-06T05:46:31.170Z,99.90
2023-05-06T05:48:58.758Z,99.90
2023-05-06T05:51:25.590Z,99.90
2023-05-06T05:53:53.623Z,99.90
2023-05-06T05:56:21.449Z,99.90
2023-05-06T05:58:48.667Z,99.90
2023-05-06T06:01:16.132Z,99.90
2023-05-06T06:03:44.589Z,99.90
2023-05-06T06:06:15.389Z,99.90
2023-05-06T06:08:42.976Z,99.90
2023-05-06T06:11:10.732Z,99.90
2023-05-06T06:13:37.522Z,99.90
2023-05-06T06:16:06.092Z,99.90
2023-05-06T06:18:33.666Z,99.90
2023-05-06T06:21:01.119Z,99.90
2023-05-06T06:23:29.034Z,99.90
2023-05-06T06:25:55.822Z,99.90
2023-05-06T06:28:22.969Z,99.90
2023-05-06T06:30:50.743Z,99.90
2023-05-06T06:33:18.234Z,99.90
2023-05-06T06:35:46.436Z,99.90
2023-05-06T06:38:13.171Z,99.90
2023-05-06T06:40:40.604Z,99.90
2023-05-06T06:43:07.370Z,99.90
2023-05-06T06:45:34.636Z,99.90
2023-05-06T06:48:01.968Z,99.90
2023-05-06T06:50:29.794Z,99.90
2023-05-06T06:52:56.601Z,99.90
2023-05-06T06:55:23.933Z,99.90
2023-05-06T06:57:52.573Z,99.90
2023-05-06T07:00:20.342Z,99.90
2023-05-06T07:02:49.160Z,99.90
2023-05-06T07:05:22.764Z,99.90
2023-05-06T07:07:50.483Z,99.90
2023-05-06T07:10:17.948Z,99.90
2023-05-06T07:12:46.140Z,99.90
2023-05-06T07:15:13.666Z,99.90
2023-05-06T07:17:40.638Z,99.90
2023-05-06T07:20:08.841Z,99.90
2023-05-06T07:22:36.257Z,99.90
2023-05-06T07:25:04.024Z,99.90
2023-05-06T07:27:31.765Z,99.90
2023-05-06T07:29:58.630Z,99.90
2023-05-06T07:32:26.075Z,99.90
2023-05-06T07:34:53.336Z,99.90
2023-05-06T07:37:20.914Z,99.90
2023-05-06T07:39:47.680Z,99.90
2023-05-06T07:42:15.850Z,99.90
2023-05-06T07:44:43.288Z,99.90
2023-05-06T07:47:10.973Z,99.90
2023-05-06T07:49:38.481Z,99.90
2023-05-06T07:52:06.257Z,99.90
2023-05-06T07:54:33.699Z,99.90
2023-05-06T07:57:00.972Z,99.90
2023-05-06T07:59:28.755Z,99.90
2023-05-06T08:01:55.810Z,99.90
2023-05-06T08:04:24.410Z,99.90
2023-05-06T08:06:51.715Z,99.90
2023-05-06T08:09:22.911Z,99.90
2023-05-06T08:11:50.960Z,99.90
2023-05-06T08:14:18.689Z,99.90
2023-05-06T08:16:45.903Z,99.90
2023-05-06T08:19:13.309Z,99.90
2023-05-06T08:21:41.650Z,99.90
2023-05-06T08:24:11.000Z,99.90
2023-05-06T08:26:38.615Z,99.90
2023-05-06T08:29:06.769Z,99.90
2023-05-06T08:31:34.909Z,99.90
2023-05-06T08:34:03.862Z,98.80
2023-05-06T08:36:32.330Z,97.30
2023-05-06T08:39:00.248Z,97.30
2023-05-06T08:41:31.414Z,94.10
2023-05-06T08:44:01.333Z,91.20
2023-05-06T08:46:31.267Z,90.00
2023-05-06T08:48:59.608Z,82.60
2023-05-06T08:51:32.003Z,78.10
2023-05-06T08:54:03.537Z,82.80
2023-05-06T08:56:33.272Z,90.20
2023-05-06T08:59:01.807Z,90.50
2023-05-06T09:01:29.639Z,90.90
2023-05-06T09:03:58.417Z,91.20
2023-05-06T09:06:26.174Z,89.60
2023-05-06T09:08:53.066Z,91.30
2023-05-06T09:11:24.507Z,90.10
2023-05-06T09:14:06.897Z,85.40
2023-05-06T09:16:34.467Z,84.40
2023-05-06T09:19:01.859Z,86.70
2023-05-06T09:21:36.194Z,82.70
2023-05-06T09:24:05.376Z,84.30
2023-05-06T09:26:34.371Z,85.10
2023-05-06T09:29:05.303Z,81.50
2023-05-06T09:31:36.239Z,81.80
2023-05-06T09:34:02.950Z,79.10
2023-05-06T09:36:30.063Z,74.80
2023-05-06T09:38:58.059Z,73.40
2023-05-06T09:41:25.802Z,68.80
2023-05-06T09:43:57.019Z,67.90
2023-05-06T09:46:28.138Z,65.10
2023-05-06T09:49:00.063Z,69.80
2023-05-06T09:51:29.305Z,69.40
2023-05-06T09:53:57.190Z,63.10
2023-05-06T09:56:25.009Z,63.20
2023-05-06T09:58:54.449Z,62.00
2023-05-06T10:01:32.855Z,57.00
2023-05-06T10:04:08.078Z,56.30
2023-05-06T10:06:36.919Z,55.40
2023-05-06T10:09:06.179Z,58.00
2023-05-06T10:11:33.227Z,55.90
2023-05-06T10:14:01.381Z,56.00
2023-05-06T10:16:29.245Z,51.30
2023-05-06T10:18:56.600Z,53.20
2023-05-06T10:21:27.774Z,50.50
2023-05-06T10:24:01.474Z,50.80
2023-05-06T10:26:31.636Z,50.50
2023-05-06T10:29:02.360Z,48.40
2023-05-06T10:31:30.842Z,49.40
2023-05-06T10:34:03.013Z,48.70
2023-05-06T10:36:33.623Z,47.10
2023-05-06T10:39:03.286Z,46.30
2023-05-06T10:41:31.023Z,45.00
2023-05-06T10:43:59.251Z,43.90
2023-05-06T10:46:29.429Z,43.80
2023-05-06T10:49:11.296Z,41.70
2023-05-06T10:51:39.135Z,42.00
2023-05-06T10:54:18.756Z,43.00
2023-05-06T10:56:48.259Z,42.60
2023-05-06T10:59:15.735Z,41.00
2023-05-06T11:01:44.082Z,38.40
2023-05-06T11:04:19.754Z,38.40
2023-05-06T11:06:48.801Z,37.40
2023-05-06T11:09:17.959Z,37.30
2023-05-06T11:11:51.945Z,37.30
2023-05-06T11:14:38.352Z,37.30
2023-05-06T11:17:07.077Z,37.60
2023-05-06T11:19:38.008Z,38.20
2023-05-06T11:22:06.777Z,37.80
2023-05-06T11:24:42.072Z,37.10
2023-05-06T11:27:10.388Z,37.40
2023-05-06T11:29:37.950Z,36.70
2023-05-06T11:32:07.716Z,36.70
2023-05-06T11:34:35.470Z,36.10
2023-05-06T11:37:04.421Z,36.50
2023-05-06T11:39:40.516Z,35.70
2023-05-06T11:42:08.979Z,34.40
2023-05-06T11:44:37.954Z,34.50
2023-05-06T11:47:06.425Z,34.60
2023-05-06T11:49:37.220Z,34.80
2023-05-06T11:52:04.773Z,33.50
2023-05-06T11:54:41.486Z,33.60
2023-05-06T11:57:09.027Z,34.50
2023-05-06T11:59:40.566Z,34.70
2023-05-06T12:02:10.012Z,34.40
2023-05-06T12:04:38.694Z,33.50
2023-05-06T12:07:07.675Z,33.50
2023-05-06T12:09:36.019Z,34.10
2023-05-06T12:12:04.766Z,33.90
2023-05-06T12:14:32.100Z,33.80
2023-05-06T12:16:58.978Z,33.20
2023-05-06T12:19:26.637Z,33.30
2023-05-06T12:21:53.447Z,32.80
2023-05-06T12:24:32.146Z,32.70
2023-05-06T12:26:58.902Z,32.00
2023-05-06T12:29:25.839Z,31.00
2023-05-06T12:32:08.911Z,30.80
2023-05-06T12:34:39.808Z,29.40
2023-05-06T12:37:08.546Z,28.90
2023-05-06T12:39:36.753Z,28.50
2023-05-06T12:42:04.096Z,28.10
2023-05-06T12:44:36.136Z,28.40
2023-05-06T12:47:07.419Z,28.10
2023-05-06T12:49:55.954Z,27.60
2023-05-06T12:52:24.174Z,27.70
2023-05-06T12:54:52.800Z,26.40
2023-05-06T12:57:20.413Z,26.50
2023-05-06T12:59:47.543Z,26.40
2023-05-06T13:02:15.238Z,26.00
2023-05-06T13:04:42.403Z,25.90
2023-05-06T13:07:09.141Z,26.30
2023-05-06T13:09:35.946Z,26.40
2023-05-06T13:12:04.550Z,26.50
2023-05-06T13:14:31.519Z,26.40
2023-05-06T13:17:01.132Z,27.10
2023-05-06T13:19:32.742Z,27.30
2023-05-06T13:22:00.632Z,27.20
2023-05-06T13:24:27.828Z,27.50
2023-05-06T13:26:56.299Z,27.90
2023-05-06T13:29:23.603Z,27.70
2023-05-06T13:31:51.370Z,27.70
2023-05-06T13:34:18.613Z,27.60
2023-05-06T13:36:46.647Z,27.90
2023-05-06T13:39:13.868Z,28.70
2023-05-06T13:41:40.566Z,29.00
2023-05-06T13:44:07.362Z,28.40
2023-05-06T13:46:34.285Z,29.00
2023-05-06T13:49:01.128Z,29.10
2023-05-06T13:51:30.574Z,30.00
2023-05-06T13:53:57.572Z,31.10
2023-05-06T13:56:24.672Z,31.80
2023-05-06T13:58:53.685Z,31.00
2023-05-06T14:01:21.701Z,32.50
2023-05-06T14:03:48.618Z,34.60
2023-05-06T14:06:16.611Z,38.80
2023-05-06T14:08:43.419Z,54.40
2023-05-06T14:11:11.957Z,69.70
2023-05-06T14:13:40.521Z,88.00
2023-05-06T14:16:08.593Z,99.90
2023-05-06T14:18:36.849Z,99.90
2023-05-06T14:21:04.607Z,99.90
2023-05-06T14:23:33.055Z,99.90
2023-05-06T14:26:00.646Z,99.90
2023-05-06T14:28:27.573Z,99.90
2023-05-06T14:31:01.315Z,99.90
2023-05-06T14:33:29.226Z,99.90
2023-05-06T14:35:58.746Z,99.90
2023-05-06T14:38:26.206Z,99.90
2023-05-06T14:40:53.708Z,99.90
2023-05-06T14:43:20.548Z,99.90
2023-05-06T14:45:49.928Z,99.90
2023-05-06T14:48:17.145Z,99.90
2023-05-06T14:50:44.376Z,99.90
2023-05-06T14:53:11.463Z,99.90
2023-05-06T14:55:38.565Z,99.90
2023-05-06T14:58:05.344Z,99.90
2023-05-06T15:00:32.320Z,99.90
2023-05-06T15:02:59.958Z,99.90
2023-05-06T15:05:28.063Z,99.90
2023-05-06T15:07:55.430Z,99.90
2023-05-06T15:10:22.325Z,99.90
2023-05-06T15:12:49.809Z,99.90
2023-05-06T15:15:18.670Z,99.90
2023-05-06T15:17:46.034Z,99.90
2023-05-06T15:20:15.766Z,99.90
2023-05-06T15:22:43.598Z,99.90
2023-05-06T15:25:14.372Z,99.90
2023-05-06T15:27:46.692Z,99.90
2023-05-06T15:30:14.453Z,99.90
2023-05-06T15:32:44.830Z,99.90
2023-05-06T15:35:13.596Z,99.90
2023-05-06T15:37:40.519Z,99.90
2023-05-06T15:40:12.220Z,99.90
2023-05-06T15:42:40.075Z,99.90
2023-05-06T15:45:07.834Z,99.90
2023-05-06T15:47:34.745Z,99.90
2023-05-06T15:50:01.887Z,99.90
2023-05-06T15:52:28.781Z,99.90
2023-05-06T15:54:59.434Z,99.90
2023-05-06T15:57:26.842Z,99.90
2023-05-06T15:59:53.556Z,99.90
2023-05-06T16:02:26.360Z,99.90
2023-05-06T16:04:54.065Z,99.90
2023-05-06T16:07:20.851Z,99.90
2023-05-06T16:09:47.770Z,99.90
2023-05-06T16:12:14.753Z,99.90
2023-05-06T16:14:41.477Z,99.90
2023-05-06T16:17:08.302Z,99.90
2023-05-06T16:19:35.113Z,99.90
2023-05-06T16:22:02.337Z,99.90
2023-05-06T16:24:29.143Z,99.90
2023-05-06T16:26:56.306Z,99.90
2023-05-06T16:29:23.397Z,99.90
2023-05-06T16:31:50.260Z,99.90
2023-05-06T16:34:17.059Z,99.90
2023-05-06T16:36:43.897Z,99.90
2023-05-06T16:39:10.610Z,99.90
2023-05-06T16:41:37.442Z,99.90
2023-05-06T16:44:04.317Z,99.90
2023-05-06T16:46:31.123Z,99.90
2023-05-06T16:48:57.864Z,99.90
2023-05-06T16:51:24.821Z,99.90
2023-05-06T16:53:51.565Z,99.90
2023-05-06T16:56:18.559Z,99.90
2023-05-06T16:58:45.300Z,99.90
2023-05-06T17:01:12.066Z,99.90
2023-05-06T17:03:40.373Z,99.90
2023-05-06T17:06:07.828Z,99.90
2023-05-06T17:08:36.238Z,99.90
2023-05-06T17:11:06.769Z,99.90
2023-05-06T17:13:34.477Z,99.90
2023-05-06T17:16:01.260Z,99.90
2023-05-06T17:18:28.109Z,99.90
2023-05-06T17:20:56.721Z,99.90
2023-05-06T17:23:24.044Z,99.90
2023-05-06T17:25:51.180Z,99.90
2023-05-06T17:28:18.912Z,99.90
2023-05-06T17:30:46.445Z,99.90
2023-05-06T17:33:13.218Z,99.90
2023-05-06T17:35:40.198Z,99.90
2023-05-06T17:38:07.706Z,99.90
2023-05-06T17:40:34.532Z,99.90
2023-05-06T17:43:01.577Z,99.90
2023-05-06T17:45:28.705Z,99.90
2023-05-06T17:47:56.492Z,99.90
2023-05-06T17:50:23.423Z,99.90
2023-05-06T17:52:52.319Z,99.90
2023-05-06T17:55:21.492Z,99.90
2023-05-06T17:57:48.731Z,99.90
2023-05-06T18:00:16.960Z,99.90
2023-05-06T18:02:44.648Z,99.90
2023-05-06T18:05:12.054Z,99.90
2023-05-06T18:07:39.467Z,99.90
2023-05-06T18:10:07.190Z,99.90
2023-05-06T18:12:34.072Z,99.90
2023-05-06T18:15:01.371Z,99.90
2023-05-06T18:17:28.208Z,99.90
2023-05-06T18:19:55.010Z,99.90
2023-05-06T18:22:21.753Z,99.90
2023-05-06T18:24:48.585Z,99.90
2023-05-06T18:27:15.323Z,99.90
2023-05-06T18:29:42.094Z,99.90
2023-05-06T18:32:08.962Z,99.90
2023-05-06T18:34:35.807Z,99.90
2023-05-06T18:37:02.624Z,99.90
2023-05-06T18:39:29.421Z,99.90
2023-05-06T18:41:56.155Z,99.90
2023-05-06T18:44:22.907Z,99.90
2023-05-06T18:46:49.726Z,99.90
2023-05-06T18:49:16.562Z,99.90
2023-05-06T18:51:43.303Z,99.90
2023-05-06T18:54:10.048Z,99.90
2023-05-06T18:56:37.434Z,99.90
2023-05-06T18:59:04.246Z,99.90
2023-05-06T19:01:31.096Z,99.90
2023-05-06T19:03:58.055Z,99.90
2023-05-06T19:06:24.927Z,99.90
2023-05-06T19:08:51.761Z,99.90
2023-05-06T19:11:19.112Z,99.90
2023-05-06T19:13:46.329Z,99.90
2023-05-06T19:16:13.946Z,99.90
2023-05-06T19:18:40.861Z,99.90
2023-05-06T19:21:10.922Z,99.90
2023-05-06T19:23:37.638Z,99.90
2023-05-06T19:26:10.270Z,99.90
2023-05-06T19:28:37.781Z,99.90
2023-05-06T19:31:11.550Z,99.90
2023-05-06T19:33:39.227Z,99.90
2023-05-06T19:36:06.957Z,99.90
2023-05-06T19:38:34.276Z,99.90
2023-05-06T19:41:01.322Z,99.90
2023-05-06T19:43:28.173Z,99.90
2023-05-06T19:45:55.604Z,99.90
2023-05-06T19:48:23.747Z,99.90
2023-05-06T19:50:51.660Z,99.90
2023-05-06T19:53:18.417Z,99.90
2023-05-06T19:55:45.414Z,99.90
2023-05-06T19:58:14.104Z,99.90
2023-05-06T20:00:40.967Z,99.90
2023-05-06T20:03:09.022Z,99.90
2023-05-06T20:05:36.041Z,99.90
2023-05-06T20:08:03.171Z,99.90
2023-05-06T20:10:30.455Z,99.90
2023-05-06T20:12:58.027Z,99.90
2023-05-06T20:15:26.513Z,99.90
2023-05-06T20:17:53.234Z,99.90
2023-05-06T20:20:20.633Z,99.90
2023-05-06T20:22:47.615Z,99.90
2023-05-06T20:25:18.864Z,99.90
2023-05-06T20:27:46.327Z,99.90
2023-05-06T20:30:13.298Z,99.90
2023-05-06T20:32:40.812Z,99.90
2023-05-06T20:35:08.283Z,99.90
2023-05-06T20:37:36.369Z,99.90
2023-05-06T20:40:04.930Z,99.90
2023-05-06T20:42:32.001Z,99.90
2023-05-06T20:44:59.798Z,99.90
2023-05-06T20:47:27.394Z,99.90
2023-05-06T20:49:54.687Z,99.90
2023-05-06T20:52:21.808Z,99.90
2023-05-06T20:54:48.965Z,99.90
2023-05-06T20:57:17.635Z,99.90
2023-05-06T20:59:44.724Z,99.90
2023-05-06T21:02:11.742Z,99.90
2023-05-06T21:04:38.503Z,99.90
2023-05-06T21:07:05.554Z,99.90
2023-05-06T21:09:32.561Z,99.90
2023-05-06T21:11:59.338Z,99.90
2023-05-06T21:14:26.962Z,99.90
2023-05-06T21:16:53.973Z,99.90
2023-05-06T21:19:21.028Z,99.90
2023-05-06T21:21:48.324Z,99.90
2023-05-06T21:24:15.335Z,99.90
2023-05-06T21:26:42.235Z,99.90
2023-05-06T21:29:09.044Z,99.90
2023-05-06T21:31:35.967Z,99.90
2023-05-06T21:34:04.090Z,99.90
2023-05-06T21:36:31.194Z,99.90
2023-05-06T21:39:08.709Z,99.90
2023-05-06T21:41:36.317Z,99.90
2023-05-06T21:44:07.954Z,99.90
2023-05-06T21:46:35.212Z,99.90
2023-05-06T21:49:02.040Z,99.90
2023-05-06T21:51:32.277Z,99.90
2023-05-06T21:53:59.141Z,99.90
2023-05-06T21:56:25.850Z,99.90
2023-05-06T21:58:53.445Z,99.90
2023-05-06T22:01:20.307Z,99.90
2023-05-06T22:03:48.278Z,99.90
2023-05-06T22:06:15.691Z,99.90
2023-05-06T22:08:42.753Z,99.90
2023-05-06T22:11:09.560Z,99.90
2023-05-06T22:13:36.482Z,99.90
2023-05-06T22:16:04.078Z,99.90
2023-05-06T22:18:31.756Z,99.90
2023-05-06T22:20:58.652Z,99.90
2023-05-06T22:23:25.989Z,99.90
2023-05-06T22:25:52.654Z,99.90
2023-05-06T22:28:19.834Z,99.90
2023-05-06T22:30:46.684Z,99.90
2023-05-06T22:33:13.491Z,99.90
2023-05-06T22:35:40.373Z,99.90
2023-05-06T22:38:07.128Z,99.90
2023-05-06T22:40:33.994Z,99.90
2023-05-06T22:43:00.708Z,99.90
2023-05-06T22:45:27.440Z,99.90
2023-05-06T22:47:54.202Z,99.90
2023-05-06T22:50:21.174Z,99.90
2023-05-06T22:52:47.886Z,99.90
2023-05-06T22:55:16.006Z,99.90
2023-05-06T22:57:42.767Z,99.90
2023-05-06T23:00:12.428Z,99.90
2023-05-06T23:02:39.848Z,99.90
2023-05-06T23:05:06.780Z,99.90
2023-05-06T23:07:33.537Z,99.90
2023-05-06T23:10:00.611Z,99.90
2023-05-06T23:12:32.127Z,99.90
2023-05-06T23:15:02.150Z,99.90
2023-05-06T23:17:29.157Z,99.90
2023-05-06T23:19:56.620Z,99.90
2023-05-06T23:22:24.044Z,99.90
2023-05-06T23:24:51.738Z,99.90
2023-05-06T23:27:21.347Z,99.90
2023-05-06T23:29:51.814Z,99.90
2023-05-06T23:32:21.759Z,99.90
2023-05-06T23:34:50.176Z,99.90
2023-05-06T23:37:17.690Z,99.90
2023-05-06T23:39:45.680Z,99.90
2023-05-06T23:42:12.655Z,99.90
2023-05-06T23:44:40.132Z,99.90
2023-05-06T23:47:07.552Z,99.90
2023-05-06T23:49:36.223Z,99.90
2023-05-06T23:52:04.463Z,99.90
2023-05-06T23:54:31.937Z,99.90
2023-05-06T23:56:59.043Z,99.90
2023-05-06T23:59:26.343Z,99.90
